sensor_id;sensor_type;location;lat;lon;timestamp;temperature;humidity
9776;DHT22;4927;52.472;13.108;2023-02-28T00:00:36;-0.90;99.90
9776;DHT22;4927;52.472;13.108;2023-02-28T00:01:53;-0.90;99.90
9776;DHT22;4927;52.472;13.108;2023-02-28T00:03:11;-0.60;99.90
9776;DHT22;4927;52.472;13.108;2023-02-28T00:04:29;-0.90;99.90
9776;DHT22;4927;52.472;13.108;2023-02-28T00:05:47;-0.90;99.90
9776;DHT22;4927;52.472;13.108;2023-02-28T00:07:05;-0.90;99.90
9776;DHT22;4927;52.472;13.108;2023-02-28T00:08:23;-0.90;99.90
9776;DHT22;4927;52.472;13.108;2023-02-28T00:09:41;-0.90;99.90
9776;DHT22;4927;52.472;13.108;2023-02-28T00:11:01;-0.90;99.90
9776;DHT22;4927;52.472;13.108;2023-02-28T00:12:18;-0.90;99.90
9776;DHT22;4927;52.472;13.108;2023-02-28T00:13:38;-0.90;99.90
9776;DHT22;4927;52.472;13.108;2023-02-28T00:14:54;-0.90;99.90
9776;DHT22;4927;52.472;13.108;2023-02-28T00:17:27;-0.90;99.90
9776;DHT22;4927;52.472;13.108;2023-02-28T00:18:45;-0.90;99.90
9776;DHT22;4927;52.472;13.108;2023-02-28T00:20:05;-0.90;99.90
9776;DHT22;4927;52.472;13.108;2023-02-28T00:21:22;-0.90;99.90
9776;DHT22;4927;52.472;13.108;2023-02-28T00:22:42;-0.90;99.90
9776;DHT22;4927;52.472;13.108;2023-02-28T00:23:59;-0.90;99.90
9776;DHT22;4927;52.472;13.108;2023-02-28T00:25:18;-0.90;99.90
9776;DHT22;4927;52.472;13.108;2023-02-28T00:26:35;-0.90;99.90
9776;DHT22;4927;52.472;13.108;2023-02-28T00:27:53;-0.90;99.90
9776;DHT22;4927;52.472;13.108;2023-02-28T00:29:11;-0.90;99.90
9776;DHT22;4927;52.472;13.108;2023-02-28T00:30:29;-0.90;99.90
9776;DHT22;4927;52.472;13.108;2023-02-28T00:31:47;-0.90;99.90
9776;DHT22;4927;52.472;13.108;2023-02-28T00:33:05;-0.50;99.90
9776;DHT22;4927;52.472;13.108;2023-02-28T00:34:22;-0.90;99.90
9776;DHT22;4927;52.472;13.108;2023-02-28T00:35:41;-0.90;99.90
9776;DHT22;4927;52.472;13.108;2023-02-28T00:36:59;-0.90;99.90
9776;DHT22;4927;52.472;13.108;2023-02-28T00:38:15;-0.90;99.90
9776;DHT22;4927;52.472;13.108;2023-02-28T00:39:33;-0.90;99.90
9776;DHT22;4927;52.472;13.108;2023-02-28T00:40:51;-1.00;99.90
9776;DHT22;4927;52.472;13.108;2023-02-28T00:42:08;-1.00;99.90
9776;DHT22;4927;52.472;13.108;2023-02-28T00:43:26;-1.00;99.90
9776;DHT22;4927;52.472;13.108;2023-02-28T00:44:44;-1.00;99.90
9776;DHT22;4927;52.472;13.108;2023-02-28T00:46:02;-1.00;99.90
9776;DHT22;4927;52.472;13.108;2023-02-28T00:47:20;-1.00;99.90
9776;DHT22;4927;52.472;13.108;2023-02-28T00:48:39;-1.00;99.90
9776;DHT22;4927;52.472;13.108;2023-02-28T00:49:57;-1.00;99.90
9776;DHT22;4927;52.472;13.108;2023-02-28T00:51:15;-0.90;99.90
9776;DHT22;4927;52.472;13.108;2023-02-28T00:52:40;-1.00;99.90
9776;DHT22;4927;52.472;13.108;2023-02-28T00:53:58;-1.00;99.90
9776;DHT22;4927;52.472;13.108;2023-02-28T00:55:15;-1.00;99.90
9776;DHT22;4927;52.472;13.108;2023-02-28T00:56:33;-1.00;99.90
9776;DHT22;4927;52.472;13.108;2023-02-28T00:57:51;-1.00;99.90
9776;DHT22;4927;52.472;13.108;2023-02-28T00:59:09;-1.00;99.90
9776;DHT22;4927;52.472;13.108;2023-02-28T01:00:27;-1.00;99.90
9776;DHT22;4927;52.472;13.108;2023-02-28T01:01:45;-1.00;99.90
9776;DHT22;4927;52.472;13.108;2023-02-28T01:03:03;-1.00;99.90
9776;DHT22;4927;52.472;13.108;2023-02-28T01:04:21;-1.00;99.90
9776;DHT22;4927;52.472;13.108;2023-02-28T01:05:39;-1.00;99.90
9776;DHT22;4927;52.472;13.108;2023-02-28T01:06:56;-1.00;99.90
9776;DHT22;4927;52.472;13.108;2023-02-28T01:08:15;-1.00;99.90
9776;DHT22;4927;52.472;13.108;2023-02-28T01:09:33;-1.00;99.90
9776;DHT22;4927;52.472;13.108;2023-02-28T01:10:52;-1.00;99.90
9776;DHT22;4927;52.472;13.108;2023-02-28T01:12:10;-1.00;99.90
9776;DHT22;4927;52.472;13.108;2023-02-28T01:13:32;-1.00;99.90
9776;DHT22;4927;52.472;13.108;2023-02-28T01:14:50;-1.00;99.90
9776;DHT22;4927;52.472;13.108;2023-02-28T01:16:13;-1.00;99.90
9776;DHT22;4927;52.472;13.108;2023-02-28T01:17:30;-0.50;99.90
9776;DHT22;4927;52.472;13.108;2023-02-28T01:18:49;-0.90;99.90
9776;DHT22;4927;52.472;13.108;2023-02-28T01:20:08;-0.90;99.90
9776;DHT22;4927;52.472;13.108;2023-02-28T01:21:27;-0.90;99.90
9776;DHT22;4927;52.472;13.108;2023-02-28T01:22:44;-0.90;99.90
9776;DHT22;4927;52.472;13.108;2023-02-28T01:24:04;-0.90;99.90
9776;DHT22;4927;52.472;13.108;2023-02-28T01:25:26;-0.90;99.90
9776;DHT22;4927;52.472;13.108;2023-02-28T01:26:45;-0.90;99.90
9776;DHT22;4927;52.472;13.108;2023-02-28T01:28:03;-0.90;99.90
9776;DHT22;4927;52.472;13.108;2023-02-28T01:29:21;-0.90;99.90
9776;DHT22;4927;52.472;13.108;2023-02-28T01:30:39;-0.90;99.90
9776;DHT22;4927;52.472;13.108;2023-02-28T01:31:55;-0.90;99.90
9776;DHT22;4927;52.472;13.108;2023-02-28T01:33:13;-0.90;99.90
9776;DHT22;4927;52.472;13.108;2023-02-28T01:34:31;-0.90;99.90
9776;DHT22;4927;52.472;13.108;2023-02-28T01:35:49;-0.90;99.90
9776;DHT22;4927;52.472;13.108;2023-02-28T01:37:07;-0.90;99.90
9776;DHT22;4927;52.472;13.108;2023-02-28T01:38:26;-0.90;99.90
9776;DHT22;4927;52.472;13.108;2023-02-28T01:39:43;-0.90;99.90
9776;DHT22;4927;52.472;13.108;2023-02-28T01:41:01;-0.90;99.90
9776;DHT22;4927;52.472;13.108;2023-02-28T01:42:20;-0.90;99.90
9776;DHT22;4927;52.472;13.108;2023-02-28T01:44:05;-1.00;99.90
9776;DHT22;4927;52.472;13.108;2023-02-28T01:45:29;-1.00;99.90
9776;DHT22;4927;52.472;13.108;2023-02-28T01:46:46;-1.00;99.90
9776;DHT22;4927;52.472;13.108;2023-02-28T01:48:03;0.00;99.90
9776;DHT22;4927;52.472;13.108;2023-02-28T01:49:21;-1.00;99.90
9776;DHT22;4927;52.472;13.108;2023-02-28T01:50:40;-1.00;99.90
9776;DHT22;4927;52.472;13.108;2023-02-28T01:51:55;-1.00;99.90
9776;DHT22;4927;52.472;13.108;2023-02-28T01:53:13;-1.00;99.90
9776;DHT22;4927;52.472;13.108;2023-02-28T01:54:52;-1.00;99.90
9776;DHT22;4927;52.472;13.108;2023-02-28T01:56:09;-1.00;99.90
9776;DHT22;4927;52.472;13.108;2023-02-28T01:57:29;-1.00;99.90
9776;DHT22;4927;52.472;13.108;2023-02-28T01:58:47;-1.00;99.90
9776;DHT22;4927;52.472;13.108;2023-02-28T02:00:05;-1.10;99.90
9776;DHT22;4927;52.472;13.108;2023-02-28T02:01:23;-1.00;99.90
9776;DHT22;4927;52.472;13.108;2023-02-28T02:02:43;-1.10;99.90
9776;DHT22;4927;52.472;13.108;2023-02-28T02:04:01;-1.10;99.90
9776;DHT22;4927;52.472;13.108;2023-02-28T02:05:17;-1.10;99.90
9776;DHT22;4927;52.472;13.108;2023-02-28T02:06:37;-1.10;99.90
9776;DHT22;4927;52.472;13.108;2023-02-28T02:07:54;-1.20;99.90
9776;DHT22;4927;52.472;13.108;2023-02-28T02:09:12;-0.90;99.90
9776;DHT22;4927;52.472;13.108;2023-02-28T02:10:34;-1.20;99.90
9776;DHT22;4927;52.472;13.108;2023-02-28T02:11:51;-1.20;99.90
9776;DHT22;4927;52.472;13.108;2023-02-28T02:13:34;-1.20;99.90
9776;DHT22;4927;52.472;13.108;2023-02-28T02:15:13;-1.20;99.90
9776;DHT22;4927;52.472;13.108;2023-02-28T02:16:41;-1.30;99.90
9776;DHT22;4927;52.472;13.108;2023-02-28T02:18:08;-1.30;99.90
9776;DHT22;4927;52.472;13.108;2023-02-28T02:19:53;-1.30;99.90
9776;DHT22;4927;52.472;13.108;2023-02-28T02:21:35;-1.30;99.90
9776;DHT22;4927;52.472;13.108;2023-02-28T02:23:08;-1.30;99.90
9776;DHT22;4927;52.472;13.108;2023-02-28T02:24:31;-1.30;99.90
9776;DHT22;4927;52.472;13.108;2023-02-28T02:25:56;-1.30;99.90
9776;DHT22;4927;52.472;13.108;2023-02-28T02:31:25;-1.40;99.90
9776;DHT22;4927;52.472;13.108;2023-02-28T02:34:42;-1.40;99.90
9776;DHT22;4927;52.472;13.108;2023-02-28T02:37:32;-1.50;99.90
9776;DHT22;4927;52.472;13.108;2023-02-28T02:38:57;-1.60;99.90
9776;DHT22;4927;52.472;13.108;2023-02-28T02:40:16;-1.60;99.90
9776;DHT22;4927;52.472;13.108;2023-02-28T02:41:39;-1.60;99.90
9776;DHT22;4927;52.472;13.108;2023-02-28T02:43:01;-1.70;99.90
9776;DHT22;4927;52.472;13.108;2023-02-28T02:44:24;-1.70;99.90
9776;DHT22;4927;52.472;13.108;2023-02-28T02:45:48;-1.70;99.90
9776;DHT22;4927;52.472;13.108;2023-02-28T02:47:16;-1.80;99.90
9776;DHT22;4927;52.472;13.108;2023-02-28T02:48:25;-1.80;99.90
9776;DHT22;4927;52.472;13.108;2023-02-28T02:49:42;-1.80;99.90
9776;DHT22;4927;52.472;13.108;2023-02-28T02:50:59;-1.80;99.90
9776;DHT22;4927;52.472;13.108;2023-02-28T02:52:17;-1.90;99.90
9776;DHT22;4927;52.472;13.108;2023-02-28T02:53:34;-1.90;99.90
9776;DHT22;4927;52.472;13.108;2023-02-28T02:54:52;-1.90;99.90
9776;DHT22;4927;52.472;13.108;2023-02-28T02:56:07;-1.90;99.90
9776;DHT22;4927;52.472;13.108;2023-02-28T02:57:35;-2.00;99.90
9776;DHT22;4927;52.472;13.108;2023-02-28T02:58:51;-2.00;99.90
9776;DHT22;4927;52.472;13.108;2023-02-28T03:00:10;-2.00;99.90
9776;DHT22;4927;52.472;13.108;2023-02-28T03:01:32;-2.10;99.90
9776;DHT22;4927;52.472;13.108;2023-02-28T03:02:50;-2.10;99.90
9776;DHT22;4927;52.472;13.108;2023-02-28T03:04:10;-2.10;99.90
9776;DHT22;4927;52.472;13.108;2023-02-28T03:05:28;-2.10;99.90
9776;DHT22;4927;52.472;13.108;2023-02-28T03:06:44;-2.20;99.90
9776;DHT22;4927;52.472;13.108;2023-02-28T03:08:03;-2.20;99.90
9776;DHT22;4927;52.472;13.108;2023-02-28T03:09:22;-2.30;99.90
9776;DHT22;4927;52.472;13.108;2023-02-28T03:10:44;-3.00;99.90
9776;DHT22;4927;52.472;13.108;2023-02-28T03:12:02;-2.30;99.90
9776;DHT22;4927;52.472;13.108;2023-02-28T03:14:51;-2.30;99.90
9776;DHT22;4927;52.472;13.108;2023-02-28T03:16:33;-2.40;99.90
9776;DHT22;4927;52.472;13.108;2023-02-28T03:18:02;-2.40;99.90
9776;DHT22;4927;52.472;13.108;2023-02-28T03:21:30;-2.40;99.90
9776;DHT22;4927;52.472;13.108;2023-02-28T03:22:59;-2.40;99.90
9776;DHT22;4927;52.472;13.108;2023-02-28T03:24:32;-2.40;99.90
9776;DHT22;4927;52.472;13.108;2023-02-28T03:25:54;-2.50;99.90
9776;DHT22;4927;52.472;13.108;2023-02-28T03:27:39;-2.50;99.90
9776;DHT22;4927;52.472;13.108;2023-02-28T03:29:01;-2.50;99.90
9776;DHT22;4927;52.472;13.108;2023-02-28T03:30:24;-2.50;99.90
9776;DHT22;4927;52.472;13.108;2023-02-28T03:31:39;-2.50;99.90
9776;DHT22;4927;52.472;13.108;2023-02-28T03:32:57;-2.60;99.90
9776;DHT22;4927;52.472;13.108;2023-02-28T03:34:17;-2.60;99.90
9776;DHT22;4927;52.472;13.108;2023-02-28T03:35:39;-2.60;99.90
9776;DHT22;4927;52.472;13.108;2023-02-28T03:36:59;-2.60;99.90
9776;DHT22;4927;52.472;13.108;2023-02-28T03:38:18;-2.70;99.90
9776;DHT22;4927;52.472;13.108;2023-02-28T03:39:39;-2.70;99.90
9776;DHT22;4927;52.472;13.108;2023-02-28T03:40:58;-2.70;99.90
9776;DHT22;4927;52.472;13.108;2023-02-28T03:42:12;-2.70;99.90
9776;DHT22;4927;52.472;13.108;2023-02-28T03:43:29;-2.70;99.90
9776;DHT22;4927;52.472;13.108;2023-02-28T03:44:49;-2.80;99.90
9776;DHT22;4927;52.472;13.108;2023-02-28T03:46:09;-2.80;99.90
9776;DHT22;4927;52.472;13.108;2023-02-28T03:47:29;-2.80;99.90
9776;DHT22;4927;52.472;13.108;2023-02-28T03:48:49;-2.80;99.90
9776;DHT22;4927;52.472;13.108;2023-02-28T03:50:08;-2.80;99.90
9776;DHT22;4927;52.472;13.108;2023-02-28T03:51:29;-2.80;99.90
9776;DHT22;4927;52.472;13.108;2023-02-28T03:52:50;-2.80;99.90
9776;DHT22;4927;52.472;13.108;2023-02-28T03:54:09;-2.90;99.90
9776;DHT22;4927;52.472;13.108;2023-02-28T03:55:32;-2.90;99.90
9776;DHT22;4927;52.472;13.108;2023-02-28T03:56:53;-2.90;99.90
9776;DHT22;4927;52.472;13.108;2023-02-28T03:58:14;-2.90;99.90
9776;DHT22;4927;52.472;13.108;2023-02-28T03:59:35;-2.90;99.90
9776;DHT22;4927;52.472;13.108;2023-02-28T04:00:55;-2.90;99.90
9776;DHT22;4927;52.472;13.108;2023-02-28T04:02:10;-2.90;99.90
9776;DHT22;4927;52.472;13.108;2023-02-28T04:03:29;-3.00;99.90
9776;DHT22;4927;52.472;13.108;2023-02-28T04:04:47;-3.00;99.90
9776;DHT22;4927;52.472;13.108;2023-02-28T04:06:07;-3.00;99.90
9776;DHT22;4927;52.472;13.108;2023-02-28T04:07:28;-3.00;99.90
9776;DHT22;4927;52.472;13.108;2023-02-28T04:08:43;-3.00;99.90
9776;DHT22;4927;52.472;13.108;2023-02-28T04:10:01;-3.00;99.90
9776;DHT22;4927;52.472;13.108;2023-02-28T04:11:24;-3.00;99.90
9776;DHT22;4927;52.472;13.108;2023-02-28T04:12:41;-3.10;99.90
9776;DHT22;4927;52.472;13.108;2023-02-28T04:13:59;-3.10;99.90
9776;DHT22;4927;52.472;13.108;2023-02-28T04:15:17;-3.10;99.90
9776;DHT22;4927;52.472;13.108;2023-02-28T04:16:35;-3.20;99.90
9776;DHT22;4927;52.472;13.108;2023-02-28T04:17:52;-3.20;99.90
9776;DHT22;4927;52.472;13.108;2023-02-28T04:19:11;-3.20;99.90
9776;DHT22;4927;52.472;13.108;2023-02-28T04:20:28;-3.20;99.90
9776;DHT22;4927;52.472;13.108;2023-02-28T04:21:48;-3.20;99.90
9776;DHT22;4927;52.472;13.108;2023-02-28T04:23:02;-3.20;99.90
9776;DHT22;4927;52.472;13.108;2023-02-28T04:24:22;-3.30;99.90
9776;DHT22;4927;52.472;13.108;2023-02-28T04:25:39;-3.30;99.90
9776;DHT22;4927;52.472;13.108;2023-02-28T04:26:57;-3.20;99.90
9776;DHT22;4927;52.472;13.108;2023-02-28T04:28:16;-3.30;99.90
9776;DHT22;4927;52.472;13.108;2023-02-28T04:29:34;-3.30;99.90
9776;DHT22;4927;52.472;13.108;2023-02-28T04:30:54;-3.30;99.90
9776;DHT22;4927;52.472;13.108;2023-02-28T04:32:12;-3.30;99.90
9776;DHT22;4927;52.472;13.108;2023-02-28T04:33:30;-3.30;99.90
9776;DHT22;4927;52.472;13.108;2023-02-28T04:34:48;-3.40;99.90
9776;DHT22;4927;52.472;13.108;2023-02-28T04:36:07;-3.40;99.90
9776;DHT22;4927;52.472;13.108;2023-02-28T04:37:25;-3.40;99.90
9776;DHT22;4927;52.472;13.108;2023-02-28T04:38:43;-3.40;99.90
9776;DHT22;4927;52.472;13.108;2023-02-28T04:40:02;-3.40;99.90
9776;DHT22;4927;52.472;13.108;2023-02-28T04:41:21;-3.40;99.90
9776;DHT22;4927;52.472;13.108;2023-02-28T04:42:39;-3.40;99.90
9776;DHT22;4927;52.472;13.108;2023-02-28T04:43:56;-3.50;99.90
9776;DHT22;4927;52.472;13.108;2023-02-28T04:45:15;-3.50;99.90
9776;DHT22;4927;52.472;13.108;2023-02-28T04:46:37;-3.50;99.90
9776;DHT22;4927;52.472;13.108;2023-02-28T04:47:55;-3.50;99.90
9776;DHT22;4927;52.472;13.108;2023-02-28T04:49:14;-3.50;99.90
9776;DHT22;4927;52.472;13.108;2023-02-28T04:50:32;-3.50;99.90
9776;DHT22;4927;52.472;13.108;2023-02-28T04:51:51;-3.50;99.90
9776;DHT22;4927;52.472;13.108;2023-02-28T04:53:09;-3.50;99.90
9776;DHT22;4927;52.472;13.108;2023-02-28T04:54:27;-3.50;99.90
9776;DHT22;4927;52.472;13.108;2023-02-28T04:55:45;-3.60;99.90
9776;DHT22;4927;52.472;13.108;2023-02-28T04:57:03;-3.60;99.90
9776;DHT22;4927;52.472;13.108;2023-02-28T04:58:21;-3.60;99.90
9776;DHT22;4927;52.472;13.108;2023-02-28T04:59:39;-3.60;99.90
9776;DHT22;4927;52.472;13.108;2023-02-28T05:01:02;-3.60;99.90
9776;DHT22;4927;52.472;13.108;2023-02-28T05:02:20;-3.60;99.90
9776;DHT22;4927;52.472;13.108;2023-02-28T05:03:38;-3.70;99.90
9776;DHT22;4927;52.472;13.108;2023-02-28T05:04:54;-3.70;99.90
9776;DHT22;4927;52.472;13.108;2023-02-28T05:06:12;-3.70;99.90
9776;DHT22;4927;52.472;13.108;2023-02-28T05:07:30;-3.70;99.90
9776;DHT22;4927;52.472;13.108;2023-02-28T05:08:47;-3.70;99.90
9776;DHT22;4927;52.472;13.108;2023-02-28T05:10:07;-3.70;99.90
9776;DHT22;4927;52.472;13.108;2023-02-28T05:11:28;-3.80;99.90
9776;DHT22;4927;52.472;13.108;2023-02-28T05:12:45;-3.80;99.90
9776;DHT22;4927;52.472;13.108;2023-02-28T05:14:04;-3.80;99.90
9776;DHT22;4927;52.472;13.108;2023-02-28T05:15:22;-3.80;99.90
9776;DHT22;4927;52.472;13.108;2023-02-28T05:16:40;-3.90;99.90
9776;DHT22;4927;52.472;13.108;2023-02-28T05:17:58;-3.90;99.90
9776;DHT22;4927;52.472;13.108;2023-02-28T05:19:16;-3.90;99.90
9776;DHT22;4927;52.472;13.108;2023-02-28T05:20:34;-3.90;99.90
9776;DHT22;4927;52.472;13.108;2023-02-28T05:21:53;-3.90;99.90
9776;DHT22;4927;52.472;13.108;2023-02-28T05:23:08;-3.90;99.90
9776;DHT22;4927;52.472;13.108;2023-02-28T05:24:29;-4.00;99.90
9776;DHT22;4927;52.472;13.108;2023-02-28T05:25:45;-4.00;99.90
9776;DHT22;4927;52.472;13.108;2023-02-28T05:27:03;-4.00;99.90
9776;DHT22;4927;52.472;13.108;2023-02-28T05:28:21;-4.00;99.90
9776;DHT22;4927;52.472;13.108;2023-02-28T05:29:39;-4.00;99.90
9776;DHT22;4927;52.472;13.108;2023-02-28T05:30:57;-4.00;99.90
9776;DHT22;4927;52.472;13.108;2023-02-28T05:32:15;-4.10;99.90
9776;DHT22;4927;52.472;13.108;2023-02-28T05:33:33;-4.10;99.90
9776;DHT22;4927;52.472;13.108;2023-02-28T05:34:52;-4.10;99.90
9776;DHT22;4927;52.472;13.108;2023-02-28T05:36:10;-4.10;99.90
9776;DHT22;4927;52.472;13.108;2023-02-28T05:37:28;-4.10;99.90
9776;DHT22;4927;52.472;13.108;2023-02-28T05:38:45;-4.10;99.90
9776;DHT22;4927;52.472;13.108;2023-02-28T05:40:02;-4.10;99.90
9776;DHT22;4927;52.472;13.108;2023-02-28T05:41:20;-4.20;99.90
9776;DHT22;4927;52.472;13.108;2023-02-28T05:42:38;-4.20;99.90
9776;DHT22;4927;52.472;13.108;2023-02-28T05:43:57;-4.20;99.90
9776;DHT22;4927;52.472;13.108;2023-02-28T05:45:14;-4.20;99.90
9776;DHT22;4927;52.472;13.108;2023-02-28T05:46:32;-4.10;99.90
9776;DHT22;4927;52.472;13.108;2023-02-28T05:47:53;-4.20;99.90
9776;DHT22;4927;52.472;13.108;2023-02-28T05:49:12;-4.20;99.90
9776;DHT22;4927;52.472;13.108;2023-02-28T05:50:30;-4.20;99.90
9776;DHT22;4927;52.472;13.108;2023-02-28T05:51:47;-4.20;99.90
9776;DHT22;4927;52.472;13.108;2023-02-28T05:53:05;-4.20;99.90
9776;DHT22;4927;52.472;13.108;2023-02-28T05:54:27;-4.20;99.90
9776;DHT22;4927;52.472;13.108;2023-02-28T05:55:43;-4.20;99.90
9776;DHT22;4927;52.472;13.108;2023-02-28T05:57:01;-4.20;99.90
9776;DHT22;4927;52.472;13.108;2023-02-28T05:58:19;-4.30;99.90
9776;DHT22;4927;52.472;13.108;2023-02-28T05:59:37;-4.30;99.90
9776;DHT22;4927;52.472;13.108;2023-02-28T06:00:55;-4.30;99.90
9776;DHT22;4927;52.472;13.108;2023-02-28T06:13:22;-4.40;99.90
9776;DHT22;4927;52.472;13.108;2023-02-28T06:14:40;-4.40;99.90
9776;DHT22;4927;52.472;13.108;2023-02-28T06:16:00;-4.40;99.90
9776;DHT22;4927;52.472;13.108;2023-02-28T06:17:14;-4.40;99.90
9776;DHT22;4927;52.472;13.108;2023-02-28T06:18:32;-4.40;99.90
9776;DHT22;4927;52.472;13.108;2023-02-28T06:19:50;-4.40;99.90
9776;DHT22;4927;52.472;13.108;2023-02-28T06:21:08;-4.40;99.90
9776;DHT22;4927;52.472;13.108;2023-02-28T06:22:26;-4.40;99.90
9776;DHT22;4927;52.472;13.108;2023-02-28T06:23:44;-4.40;99.90
9776;DHT22;4927;52.472;13.108;2023-02-28T06:25:03;-4.40;99.90
9776;DHT22;4927;52.472;13.108;2023-02-28T06:26:19;-4.40;99.90
9776;DHT22;4927;52.472;13.108;2023-02-28T06:27:37;-4.40;99.90
9776;DHT22;4927;52.472;13.108;2023-02-28T06:28:59;-4.40;99.90
9776;DHT22;4927;52.472;13.108;2023-02-28T06:30:18;-4.40;99.90
9776;DHT22;4927;52.472;13.108;2023-02-28T06:31:37;-4.40;99.90
9776;DHT22;4927;52.472;13.108;2023-02-28T06:32:55;-4.40;99.90
9776;DHT22;4927;52.472;13.108;2023-02-28T06:34:13;-4.40;99.90
9776;DHT22;4927;52.472;13.108;2023-02-28T06:35:30;-4.30;99.90
9776;DHT22;4927;52.472;13.108;2023-02-28T06:36:50;-4.30;99.90
9776;DHT22;4927;52.472;13.108;2023-02-28T06:38:07;-4.30;99.90
9776;DHT22;4927;52.472;13.108;2023-02-28T06:39:25;-4.30;99.90
9776;DHT22;4927;52.472;13.108;2023-02-28T06:40:44;-4.20;99.90
9776;DHT22;4927;52.472;13.108;2023-02-28T06:42:02;-4.30;99.90
9776;DHT22;4927;52.472;13.108;2023-02-28T06:43:20;-4.20;99.90
9776;DHT22;4927;52.472;13.108;2023-02-28T06:44:38;-4.20;99.90
9776;DHT22;4927;52.472;13.108;2023-02-28T06:45:56;-4.20;99.90
9776;DHT22;4927;52.472;13.108;2023-02-28T06:47:13;-4.20;99.90
9776;DHT22;4927;52.472;13.108;2023-02-28T06:48:29;-4.20;99.90
9776;DHT22;4927;52.472;13.108;2023-02-28T06:49:46;-4.20;99.90
9776;DHT22;4927;52.472;13.108;2023-02-28T06:51:05;-4.20;99.90
9776;DHT22;4927;52.472;13.108;2023-02-28T06:52:22;-4.10;99.90
9776;DHT22;4927;52.472;13.108;2023-02-28T06:53:39;-4.10;99.90
9776;DHT22;4927;52.472;13.108;2023-02-28T06:54:57;-4.10;99.90
9776;DHT22;4927;52.472;13.108;2023-02-28T06:56:17;-4.10;99.90
9776;DHT22;4927;52.472;13.108;2023-02-28T06:57:35;-4.00;99.90
9776;DHT22;4927;52.472;13.108;2023-02-28T06:58:52;-4.00;99.90
9776;DHT22;4927;52.472;13.108;2023-02-28T07:00:11;-4.00;99.90
9776;DHT22;4927;52.472;13.108;2023-02-28T07:01:30;-4.00;99.90
9776;DHT22;4927;52.472;13.108;2023-02-28T07:02:48;-4.00;99.90
9776;DHT22;4927;52.472;13.108;2023-02-28T07:04:06;-3.90;99.90
9776;DHT22;4927;52.472;13.108;2023-02-28T07:05:25;-3.90;99.90
9776;DHT22;4927;52.472;13.108;2023-02-28T07:06:43;-3.90;99.90
9776;DHT22;4927;52.472;13.108;2023-02-28T07:08:01;-3.90;99.90
9776;DHT22;4927;52.472;13.108;2023-02-28T07:09:18;-3.80;99.90
9776;DHT22;4927;52.472;13.108;2023-02-28T07:10:36;-3.80;99.90
9776;DHT22;4927;52.472;13.108;2023-02-28T07:11:50;-3.80;99.90
9776;DHT22;4927;52.472;13.108;2023-02-28T07:13:08;-3.70;99.90
9776;DHT22;4927;52.472;13.108;2023-02-28T07:14:26;-3.70;99.90
9776;DHT22;4927;52.472;13.108;2023-02-28T07:15:52;-3.70;99.90
9776;DHT22;4927;52.472;13.108;2023-02-28T07:17:02;-3.70;99.90
9776;DHT22;4927;52.472;13.108;2023-02-28T07:18:20;-3.60;99.90
9776;DHT22;4927;52.472;13.108;2023-02-28T07:19:38;-3.60;99.90
9776;DHT22;4927;52.472;13.108;2023-02-28T07:20:56;-3.60;99.90
9776;DHT22;4927;52.472;13.108;2023-02-28T07:22:14;-3.50;99.90
9776;DHT22;4927;52.472;13.108;2023-02-28T07:23:32;-3.50;99.90
9776;DHT22;4927;52.472;13.108;2023-02-28T07:24:49;-3.50;99.90
9776;DHT22;4927;52.472;13.108;2023-02-28T07:26:11;-3.40;99.90
9776;DHT22;4927;52.472;13.108;2023-02-28T07:27:25;-3.40;99.90
9776;DHT22;4927;52.472;13.108;2023-02-28T07:28:47;-3.40;99.90
9776;DHT22;4927;52.472;13.108;2023-02-28T07:30:06;-3.40;99.90
9776;DHT22;4927;52.472;13.108;2023-02-28T07:31:25;-3.30;99.90
9776;DHT22;4927;52.472;13.108;2023-02-28T07:32:43;-3.30;99.90
9776;DHT22;4927;52.472;13.108;2023-02-28T07:34:01;-3.30;99.90
9776;DHT22;4927;52.472;13.108;2023-02-28T07:35:18;-3.20;99.90
9776;DHT22;4927;52.472;13.108;2023-02-28T07:36:36;-3.20;99.90
9776;DHT22;4927;52.472;13.108;2023-02-28T07:37:54;-3.10;99.90
9776;DHT22;4927;52.472;13.108;2023-02-28T07:39:12;-3.10;99.90
9776;DHT22;4927;52.472;13.108;2023-02-28T07:40:31;-3.00;99.90
9776;DHT22;4927;52.472;13.108;2023-02-28T07:41:49;-3.00;99.90
9776;DHT22;4927;52.472;13.108;2023-02-28T07:43:06;-3.00;99.90
9776;DHT22;4927;52.472;13.108;2023-02-28T07:44:25;-2.90;99.90
9776;DHT22;4927;52.472;13.108;2023-02-28T07:45:42;-2.80;99.90
9776;DHT22;4927;52.472;13.108;2023-02-28T07:47:00;-2.80;99.90
9776;DHT22;4927;52.472;13.108;2023-02-28T07:48:18;-2.80;99.90
9776;DHT22;4927;52.472;13.108;2023-02-28T07:49:36;-2.70;99.90
9776;DHT22;4927;52.472;13.108;2023-02-28T07:50:55;-2.70;99.90
9776;DHT22;4927;52.472;13.108;2023-02-28T07:52:12;-2.60;99.90
9776;DHT22;4927;52.472;13.108;2023-02-28T07:53:30;-2.60;99.90
9776;DHT22;4927;52.472;13.108;2023-02-28T07:54:48;-2.50;99.90
9776;DHT22;4927;52.472;13.108;2023-02-28T07:56:06;-2.50;99.90
9776;DHT22;4927;52.472;13.108;2023-02-28T07:57:24;-2.40;99.90
9776;DHT22;4927;52.472;13.108;2023-02-28T07:58:42;-2.40;99.90
9776;DHT22;4927;52.472;13.108;2023-02-28T08:00:01;-2.30;99.90
9776;DHT22;4927;52.472;13.108;2023-02-28T08:01:18;-2.30;99.90
9776;DHT22;4927;52.472;13.108;2023-02-28T08:02:37;-2.20;99.90
9776;DHT22;4927;52.472;13.108;2023-02-28T08:03:56;-2.10;99.90
9776;DHT22;4927;52.472;13.108;2023-02-28T08:05:15;-2.00;99.90
9776;DHT22;4927;52.472;13.108;2023-02-28T08:06:32;-2.00;99.90
9776;DHT22;4927;52.472;13.108;2023-02-28T08:07:50;-1.90;99.90
9776;DHT22;4927;52.472;13.108;2023-02-28T08:09:08;-1.80;99.90
9776;DHT22;4927;52.472;13.108;2023-02-28T08:10:26;-1.70;99.90
9776;DHT22;4927;52.472;13.108;2023-02-28T08:11:45;-1.60;99.90
9776;DHT22;4927;52.472;13.108;2023-02-28T08:13:02;-1.60;99.90
9776;DHT22;4927;52.472;13.108;2023-02-28T08:14:21;-1.40;99.90
9776;DHT22;4927;52.472;13.108;2023-02-28T08:15:41;-1.30;99.90
9776;DHT22;4927;52.472;13.108;2023-02-28T08:16:58;-1.30;99.90
9776;DHT22;4927;52.472;13.108;2023-02-28T08:18:16;-1.20;99.90
9776;DHT22;4927;52.472;13.108;2023-02-28T08:19:34;-1.10;99.90
9776;DHT22;4927;52.472;13.108;2023-02-28T08:20:51;-1.00;99.90
9776;DHT22;4927;52.472;13.108;2023-02-28T08:22:10;-0.90;99.90
9776;DHT22;4927;52.472;13.108;2023-02-28T08:23:28;-0.80;99.90
9776;DHT22;4927;52.472;13.108;2023-02-28T08:24:46;-0.70;99.90
9776;DHT22;4927;52.472;13.108;2023-02-28T08:26:04;-0.60;99.90
9776;DHT22;4927;52.472;13.108;2023-02-28T08:27:22;-0.60;99.90
9776;DHT22;4927;52.472;13.108;2023-02-28T08:28:39;-0.50;99.90
9776;DHT22;4927;52.472;13.108;2023-02-28T08:29:58;-0.30;99.90
9776;DHT22;4927;52.472;13.108;2023-02-28T08:31:15;-0.20;99.90
9776;DHT22;4927;52.472;13.108;2023-02-28T08:32:33;-0.20;99.90
9776;DHT22;4927;52.472;13.108;2023-02-28T08:33:49;0.00;99.90
9776;DHT22;4927;52.472;13.108;2023-02-28T08:35:08;0.00;99.90
9776;DHT22;4927;52.472;13.108;2023-02-28T08:36:27;0.40;99.90
9776;DHT22;4927;52.472;13.108;2023-02-28T08:37:47;0.30;99.90
9776;DHT22;4927;52.472;13.108;2023-02-28T08:39:03;0.30;99.90
9776;DHT22;4927;52.472;13.108;2023-02-28T08:40:22;0.50;99.90
9776;DHT22;4927;52.472;13.108;2023-02-28T08:41:38;0.50;99.90
9776;DHT22;4927;52.472;13.108;2023-02-28T08:43:02;0.60;99.90
9776;DHT22;4927;52.472;13.108;2023-02-28T08:44:20;0.70;99.90
9776;DHT22;4927;52.472;13.108;2023-02-28T08:45:36;0.80;99.90
9776;DHT22;4927;52.472;13.108;2023-02-28T08:46:54;0.80;99.90
9776;DHT22;4927;52.472;13.108;2023-02-28T08:48:12;0.80;99.90
9776;DHT22;4927;52.472;13.108;2023-02-28T08:49:31;0.90;99.90
9776;DHT22;4927;52.472;13.108;2023-02-28T08:50:57;1.00;99.90
9776;DHT22;4927;52.472;13.108;2023-02-28T08:52:15;1.00;99.90